Time;durP1;ratioP1;P1;durP2;ratioP2;P2;SDS_P1;SDS_P2;PMS_P1;PMS_P2;Temp;Humidity;BMP_temperature;BMP_pressure;BME280_temperature;BME280_humidity;BME280_pressure;Samples;Min_cycle;Max_cycle;Signal;HPM_P1;HPM_P2
2022/07/21 00:01:04;;;;;;;10.53;9.60;;;22.50;99.90;;;;;;5049570;28;20522;-48
2022/07/21 00:03:31;;;;;;;9.47;8.40;;;22.60;99.90;;;;;;5049579;28;20974;-48
2022/07/21 00:05:58;;;;;;;10.47;9.37;;;22.60;99.90;;;;;;5049339;28;20449;-48
2022/07/21 00:08:25;;;;;;;11.47;9.20;;;22.60;99.90;;;;;;5049177;28;21006;-48
2022/07/21 00:10:52;;;;;;;9.20;8.40;;;22.70;99.90;;;;;;5049385;28;20453;-48
2022/07/21 00:13:20;;;;;;;9.77;8.97;;;22.60;99.90;;;;;;5049457;28;20436;-48
2022/07/21 00:15:48;;;;;;;9.97;9.03;;;22.50;99.90;;;;;;5049507;28;20831;-48
2022/07/21 00:18:16;;;;;;;11.23;10.10;;;22.50;99.90;;;;;;5049327;28;20466;-48
2022/07/21 00:20:43;;;;;;;10.73;9.70;;;22.40;99.90;;;;;;5051142;28;20961;-48
2022/07/21 00:23:10;;;;;;;10.43;9.43;;;22.30;99.90;;;;;;5053581;28;20449;-48
2022/07/21 00:25:37;;;;;;;9.83;8.93;;;22.30;99.90;;;;;;5053386;28;20453;-48
2022/07/21 00:28:05;;;;;;;9.77;8.93;;;22.20;99.90;;;;;;5052960;28;20473;-49
2022/07/21 00:30:33;;;;;;;9.73;8.70;;;22.20;99.90;;;;;;5053421;28;20441;-49
2022/07/21 00:33:00;;;;;;;10.90;10.00;;;22.20;99.90;;;;;;5053572;28;20457;-49
2022/07/21 00:35:27;;;;;;;10.47;9.57;;;22.10;99.90;;;;;;5053067;28;20441;-49
2022/07/21 00:37:54;;;;;;;11.33;10.33;;;21.90;99.90;;;;;;5052902;28;20457;-48
2022/07/21 00:40:21;;;;;;;17.87;12.60;;;21.70;99.90;;;;;;5052646;28;20429;-48
2022/07/21 00:42:49;;;;;;;12.50;10.10;;;21.80;99.90;;;;;;5052989;28;20506;-48
2022/07/21 00:45:16;;;;;;;11.60;10.27;;;21.70;99.90;;;;;;5053067;28;20449;-47
2022/07/21 00:47:44;;;;;;;11.10;10.00;;;21.70;99.90;;;;;;5052684;28;20522;-48
2022/07/21 00:50:14;;;;;;;9.70;8.80;;;21.70;99.90;;;;;;5052477;28;20449;-48
2022/07/21 00:52:41;;;;;;;10.33;9.43;;;21.80;99.90;;;;;;5052874;28;20449;-51
2022/07/21 00:55:13;;;;;;;10.03;9.13;;;21.80;99.90;;;;;;5052689;28;20499;-48
2022/07/21 00:57:41;;;;;;;10.03;9.10;;;21.90;99.90;;;;;;5052564;28;20449;-49
2022/07/21 01:00:11;;;;;;;11.43;10.33;;;22.00;99.90;;;;;;5052281;28;20433;-50
2022/07/21 01:02:38;;;;;;;10.13;9.23;;;22.00;99.90;;;;;;5052676;28;20926;-47
2022/07/21 01:05:12;;;;;;;10.17;9.13;;;21.90;99.90;;;;;;5052614;28;20449;-47
2022/07/21 01:07:39;;;;;;;11.30;10.17;;;21.80;99.90;;;;;;5051973;28;20457;-48
2022/07/21 01:10:06;;;;;;;10.93;9.87;;;21.80;99.90;;;;;;5052220;28;20457;-49
2022/07/21 01:12:34;;;;;;;10.57;9.57;;;21.70;99.90;;;;;;5052636;28;20464;-49
2022/07/21 01:15:01;;;;;;;10.27;9.30;;;21.70;99.90;;;;;;5052422;28;20454;-48
2022/07/21 01:17:28;;;;;;;10.10;9.10;;;21.70;99.90;;;;;;5052320;28;20446;-47
2022/07/21 01:19:55;;;;;;;11.17;10.03;;;21.70;99.90;;;;;;5052109;28;20445;-48
2022/07/21 01:22:23;;;;;;;11.63;10.53;;;21.70;99.90;;;;;;5052229;28;20447;-48
2022/07/21 01:24:50;;;;;;;11.10;10.10;;;21.70;99.90;;;;;;5052140;28;20453;-49
2022/07/21 01:27:17;;;;;;;10.93;9.77;;;21.80;99.90;;;;;;5052190;28;20536;-47
2022/07/21 01:29:44;;;;;;;11.13;10.13;;;21.80;99.90;;;;;;5051472;28;20473;-49
2022/07/21 01:32:11;;;;;;;11.43;10.43;;;21.80;99.90;;;;;;5050978;28;20514;-51
2022/07/21 01:34:38;;;;;;;9.50;8.60;;;21.70;99.90;;;;;;5051964;28;20433;-48
2022/07/21 01:37:05;;;;;;;10.07;9.17;;;21.70;99.90;;;;;;5052078;28;20472;-48
2022/07/21 01:42:18;;;;;;;11.00;10.00;;;21.80;99.90;;;;;;5051833;28;20483;-48
2022/07/21 01:44:45;;;;;;;11.10;10.10;;;21.70;99.90;;;;;;5052120;28;20511;-49
2022/07/21 01:47:12;;;;;;;10.53;9.57;;;21.80;99.90;;;;;;5051773;28;20496;-49
2022/07/21 01:49:39;;;;;;;10.80;9.80;;;21.90;99.90;;;;;;5050859;28;20563;-47
2022/07/21 01:52:07;;;;;;;11.77;10.67;;;21.70;99.90;;;;;;5051773;28;20535;-50
2022/07/21 01:54:35;;;;;;;11.03;10.00;;;21.80;99.90;;;;;;5051578;28;20436;-48
2022/07/21 01:57:03;;;;;;;11.43;9.37;;;21.70;99.90;;;;;;5051599;28;20469;-47
2022/07/21 01:59:30;;;;;;;11.20;10.30;;;21.70;99.90;;;;;;5051048;28;20875;-50
2022/07/21 02:01:57;;;;;;;11.50;10.00;;;21.50;99.90;;;;;;5051578;28;20481;-47
2022/07/21 02:04:24;;;;;;;10.13;9.13;;;21.60;99.90;;;;;;5051613;28;20953;-50
2022/07/21 02:06:52;;;;;;;12.20;10.00;;;21.60;99.90;;;;;;5051276;28;20500;-47
2022/07/21 02:09:19;;;;;;;12.30;10.17;;;21.60;99.90;;;;;;5050941;28;20519;-48
2022/07/21 02:11:47;;;;;;;11.17;10.07;;;21.60;99.90;;;;;;5051358;28;20495;-51
2022/07/21 02:14:14;;;;;;;10.30;9.27;;;21.60;99.90;;;;;;5051253;28;20442;-49
2022/07/21 02:16:41;;;;;;;10.77;9.87;;;21.60;99.90;;;;;;5051333;28;20445;-48
2022/07/21 02:19:10;;;;;;;11.80;10.60;;;21.60;99.90;;;;;;5050722;28;20457;-52
2022/07/21 02:21:37;;;;;;;11.57;10.60;;;21.50;99.90;;;;;;5050881;28;20464;-48
2022/07/21 02:24:05;;;;;;;12.10;10.90;;;21.30;99.90;;;;;;5050989;28;20438;-48
2022/07/21 02:26:33;;;;;;;11.57;10.40;;;21.30;99.90;;;;;;5051018;28;20462;-51
2022/07/21 02:29:01;;;;;;;10.77;9.77;;;21.40;99.90;;;;;;5050312;28;20498;-50
2022/07/21 02:31:28;;;;;;;11.00;10.10;;;21.40;99.90;;;;;;5050743;28;20869;-47
2022/07/21 02:33:55;;;;;;;11.07;10.10;;;21.30;99.90;;;;;;5050735;28;20438;-49
2022/07/21 02:36:22;;;;;;;9.80;8.97;;;21.20;99.90;;;;;;5050836;28;20469;-48
2022/07/21 02:38:50;;;;;;;11.07;10.07;;;21.20;99.90;;;;;;5050487;28;20483;-49
2022/07/21 02:41:17;;;;;;;11.70;10.70;;;21.20;99.90;;;;;;5050644;28;20491;-48
2022/07/21 02:43:44;;;;;;;10.87;9.70;;;21.30;99.90;;;;;;5050365;28;20445;-48
2022/07/21 02:46:12;;;;;;;10.20;9.40;;;21.00;99.90;;;;;;5050711;28;20472;-47
2022/07/21 02:48:39;;;;;;;10.47;9.57;;;20.90;99.90;;;;;;5050095;28;20477;-54
2022/07/21 02:51:06;;;;;;;10.43;9.53;;;20.80;99.90;;;;;;5050368;28;20515;-48
2022/07/21 02:53:33;;;;;;;10.37;9.37;;;20.90;99.90;;;;;;5050519;28;20495;-48
2022/07/21 02:56:00;;;;;;;11.40;10.40;;;20.90;99.90;;;;;;5050495;28;20946;-50
2022/07/21 02:58:29;;;;;;;11.03;10.03;;;21.00;99.90;;;;;;5050306;28;20515;-47
2022/07/21 03:00:58;;;;;;;10.60;9.67;;;21.00;99.90;;;;;;5050149;28;20433;-48
2022/07/21 03:03:28;;;;;;;11.90;10.70;;;21.00;99.90;;;;;;5050298;28;20477;-48
2022/07/21 03:05:56;;;;;;;11.73;10.60;;;21.00;99.90;;;;;;5050123;28;20973;-50
2022/07/21 03:08:24;;;;;;;10.30;9.50;;;21.00;99.90;;;;;;5050065;28;21066;-49
2022/07/21 03:10:51;;;;;;;10.73;9.73;;;21.00;99.90;;;;;;5050196;28;20534;-51
2022/07/21 03:13:18;;;;;;;11.47;10.37;;;21.00;99.90;;;;;;5050220;28;20510;-48
2022/07/21 03:15:45;;;;;;;10.23;9.33;;;21.10;99.90;;;;;;5050196;28;20438;-48
2022/07/21 03:18:12;;;;;;;9.70;8.80;;;21.10;99.90;;;;;;5049813;28;20942;-48
2022/07/21 03:20:42;;;;;;;10.57;9.67;;;21.10;99.90;;;;;;5049535;28;20441;-46
2022/07/21 03:23:10;;;;;;;11.40;10.30;;;21.20;99.90;;;;;;5050112;28;20514;-47
2022/07/21 03:25:37;;;;;;;11.20;10.20;;;21.10;99.90;;;;;;5049957;28;20434;-47
2022/07/21 03:28:06;;;;;;;10.40;9.33;;;21.10;99.90;;;;;;5051398;28;20477;-48
2022/07/21 03:30:33;;;;;;;11.87;10.70;;;21.00;99.90;;;;;;5049661;28;20483;-47
2022/07/21 03:33:00;;;;;;;12.23;10.80;;;21.00;99.90;;;;;;5049912;28;20861;-48
2022/07/21 03:35:27;;;;;;;9.97;9.17;;;21.00;99.90;;;;;;5050314;28;20473;-48
2022/07/21 03:37:57;;;;;;;11.63;10.43;;;20.90;99.90;;;;;;5049880;28;20497;-47
2022/07/21 03:40:26;;;;;;;10.80;9.80;;;21.00;99.90;;;;;;5049640;28;20445;-48
2022/07/21 03:42:55;;;;;;;10.47;9.57;;;21.00;99.90;;;;;;5049851;28;20449;-51
2022/07/21 03:45:24;;;;;;;11.07;10.07;;;21.00;99.90;;;;;;5050259;28;20445;-48
2022/07/21 03:47:51;;;;;;;12.17;10.60;;;20.90;99.90;;;;;;5049653;28;20461;-48
2022/07/21 03:50:18;;;;;;;10.83;9.83;;;20.70;99.90;;;;;;5049046;28;20823;-49
2022/07/21 03:52:45;;;;;;;11.73;10.63;;;20.70;99.90;;;;;;5049793;28;20449;-47
2022/07/21 03:55:17;;;;;;;10.80;9.70;;;20.70;99.90;;;;;;5051245;28;20457;-50
2022/07/21 03:57:46;;;;;;;10.93;9.60;;;20.80;99.90;;;;;;5053846;28;20453;-49
2022/07/21 04:00:16;;;;;;;10.10;9.30;;;20.80;99.90;;;;;;5053526;28;20550;-48
2022/07/21 04:02:43;;;;;;;11.50;10.30;;;20.80;99.90;;;;;;5054088;28;20503;-48
2022/07/21 04:05:11;;;;;;;9.53;8.63;;;20.80;99.90;;;;;;5053606;28;20444;-48
2022/07/21 04:07:40;;;;;;;10.70;9.60;;;20.90;99.90;;;;;;5053308;28;20569;-47
2022/07/21 04:10:08;;;;;;;12.30;9.53;;;20.90;99.90;;;;;;5053048;28;20552;-47
2022/07/21 04:12:38;;;;;;;10.83;9.83;;;21.00;99.90;;;;;;5053565;28;20952;-48
2022/07/21 04:15:06;;;;;;;11.03;10.03;;;21.00;99.90;;;;;;5053398;28;20433;-47
2022/07/21 04:17:33;;;;;;;12.37;10.80;;;21.00;99.90;;;;;;5053467;28;20472;-48
2022/07/21 04:20:00;;;;;;;11.50;10.37;;;21.00;99.90;;;;;;5053227;28;20491;-47
2022/07/21 04:22:27;;;;;;;11.63;10.53;;;21.10;99.90;;;;;;5053179;28;20452;-47
2022/07/21 04:24:54;;;;;;;11.47;10.37;;;21.10;99.90;;;;;;5053212;28;20452;-49
2022/07/21 04:27:21;;;;;;;13.30;11.20;;;21.00;99.90;;;;;;5053064;28;20449;-47
2022/07/21 04:29:50;;;;;;;11.50;10.50;;;20.90;99.90;;;;;;5052826;28;20497;-49
2022/07/21 04:32:17;;;;;;;12.00;10.83;;;20.90;99.90;;;;;;5053213;28;20499;-48
2022/07/21 04:34:44;;;;;;;12.20;10.97;;;20.90;99.90;;;;;;5053203;28;20594;-47
2022/07/21 04:37:11;;;;;;;10.77;9.87;;;20.90;99.90;;;;;;5053084;28;20862;-50
2022/07/21 04:39:38;;;;;;;11.83;10.43;;;21.00;99.90;;;;;;5052754;28;20530;-47
2022/07/21 04:42:05;;;;;;;11.00;10.10;;;21.00;99.90;;;;;;5052911;28;20475;-50
2022/07/21 04:44:32;;;;;;;11.50;10.50;;;20.90;99.90;;;;;;5053051;28;20440;-48
2022/07/21 04:47:01;;;;;;;10.80;9.80;;;21.00;99.90;;;;;;5052939;28;20867;-51
2022/07/21 04:49:28;;;;;;;10.60;9.70;;;21.00;99.90;;;;;;5052200;28;20978;-48
2022/07/21 04:51:54;;;;;;;15.00;10.70;;;21.00;99.90;;;;;;5052853;28;20473;-48
2022/07/21 04:54:21;;;;;;;12.00;10.90;;;20.90;99.90;;;;;;5052790;28;20950;-50
2022/07/21 04:56:49;;;;;;;12.63;11.53;;;20.90;99.90;;;;;;5052748;28;20445;-48
2022/07/21 04:59:16;;;;;;;11.10;10.00;;;20.90;99.90;;;;;;5052297;28;20476;-48
2022/07/21 05:01:43;;;;;;;11.97;10.97;;;20.90;99.90;;;;;;5052645;28;20499;-47
2022/07/21 05:04:11;;;;;;;12.27;11.20;;;20.90;99.90;;;;;;5052509;28;20429;-47
2022/07/21 05:06:38;;;;;;;10.40;9.40;;;20.90;99.90;;;;;;5052143;28;20932;-47
2022/07/21 05:09:05;;;;;;;10.00;9.10;;;21.10;99.90;;;;;;5052038;28;20473;-48
2022/07/21 05:11:32;;;;;;;11.63;10.10;;;21.20;99.90;;;;;;5052565;28;20449;-48
2022/07/21 05:13:59;;;;;;;12.23;11.03;;;21.20;99.90;;;;;;5052385;28;20445;-49
2022/07/21 05:16:26;;;;;;;14.37;12.97;;;21.20;99.90;;;;;;5052482;28;20930;-48
2022/07/21 05:18:53;;;;;;;13.40;12.10;;;21.20;99.90;;;;;;5052061;28;20534;-49
2022/07/21 05:21:22;;;;;;;13.57;12.30;;;21.00;99.90;;;;;;5052065;28;20503;-47
2022/07/21 05:23:49;;;;;;;13.27;11.97;;;20.90;99.90;;;;;;5052206;28;20445;-48
2022/07/21 05:26:16;;;;;;;12.77;11.60;;;20.80;99.90;;;;;;5052070;28;20438;-51
2022/07/21 05:28:43;;;;;;;13.03;11.73;;;20.70;99.90;;;;;;5051929;28;20473;-48
2022/07/21 05:31:10;;;;;;;12.23;11.07;;;20.60;99.90;;;;;;5051695;28;21016;-48
2022/07/21 05:33:37;;;;;;;12.23;11.10;;;20.70;99.90;;;;;;5052054;28;20449;-48
2022/07/21 05:36:04;;;;;;;12.23;11.13;;;20.70;99.90;;;;;;5051985;28;20491;-48
2022/07/21 05:38:33;;;;;;;14.87;12.13;;;20.80;99.90;;;;;;5051840;28;20523;-48
2022/07/21 05:41:02;;;;;;;13.43;11.37;;;20.80;99.90;;;;;;5051726;28;20503;-48
2022/07/21 05:43:30;;;;;;;13.57;12.37;;;20.90;99.90;;;;;;5051729;28;20787;-49
2022/07/21 05:45:57;;;;;;;13.57;12.17;;;21.00;99.90;;;;;;5051734;28;20445;-51
2022/07/21 05:48:24;;;;;;;13.97;12.67;;;21.00;99.90;;;;;;5051737;28;20556;-47
2022/07/21 05:50:51;;;;;;;15.27;13.77;;;21.10;99.90;;;;;;5051053;28;20560;-51
2022/07/21 05:53:18;;;;;;;14.43;12.87;;;21.00;99.90;;;;;;5051720;28;20484;-47
2022/07/21 05:55:46;;;;;;;14.20;12.90;;;21.00;99.90;;;;;;5051878;28;20753;-50
2022/07/21 05:58:14;;;;;;;12.97;11.77;;;20.90;99.90;;;;;;5051550;28;21008;-49
2022/07/21 06:00:41;;;;;;;12.20;11.20;;;20.80;99.90;;;;;;5051251;28;20433;-48
2022/07/21 06:03:08;;;;;;;14.83;11.90;;;20.90;99.90;;;;;;5051551;28;20475;-47
2022/07/21 06:05:35;;;;;;;14.67;13.23;;;20.90;99.90;;;;;;5050866;28;20442;-46
2022/07/21 06:08:02;;;;;;;14.40;13.10;;;20.90;99.90;;;;;;5051354;28;20457;-48
2022/07/21 06:10:29;;;;;;;17.10;13.60;;;20.80;99.90;;;;;;5050906;28;20469;-50
2022/07/21 06:12:57;;;;;;;14.17;12.90;;;20.60;99.90;;;;;;5051364;28;20476;-47
2022/07/21 06:15:24;;;;;;;14.73;13.43;;;21.00;99.90;;;;;;5051307;28;20472;-48
2022/07/21 06:17:51;;;;;;;14.23;12.97;;;21.80;99.90;;;;;;5050691;28;20526;-50
2022/07/21 06:20:18;;;;;;;14.47;12.90;;;22.60;99.90;;;;;;5050671;28;20503;-48
2022/07/21 06:22:45;;;;;;;13.47;12.20;;;23.20;99.90;;;;;;5050683;28;20446;-50
2022/07/21 06:25:12;;;;;;;13.60;12.30;;;23.90;99.90;;;;;;5051098;28;20473;-48
2022/07/21 06:27:39;;;;;;;12.73;11.47;;;24.10;99.90;;;;;;5050722;28;20454;-49
2022/07/21 06:30:10;;;;;;;13.70;12.50;;;24.30;99.90;;;;;;5050745;28;20461;-48
2022/07/21 06:32:37;;;;;;;16.00;13.40;;;24.20;99.90;;;;;;5050879;28;20438;-49
2022/07/21 06:35:04;;;;;;;15.80;14.40;;;23.80;99.90;;;;;;5050963;28;20449;-47
2022/07/21 06:37:31;;;;;;;14.33;12.93;;;23.50;99.90;;;;;;5050740;28;20449;-48
2022/07/21 06:39:59;;;;;;;14.30;13.00;;;23.30;99.90;;;;;;5050694;28;20471;-53
2022/07/21 06:42:26;;;;;;;16.00;13.47;;;23.20;99.90;;;;;;5050807;28;20969;-47
2022/07/21 06:44:53;;;;;;;15.50;14.10;;;23.30;99.90;;;;;;5050640;28;20437;-47
2022/07/21 06:47:21;;;;;;;14.63;13.33;;;23.30;99.90;;;;;;5050663;28;20445;-49
2022/07/21 06:49:48;;;;;;;16.37;14.63;;;23.30;99.90;;;;;;5050332;28;20519;-49
2022/07/21 06:52:15;;;;;;;15.57;14.17;;;23.20;99.90;;;;;;5050711;28;20864;-48
2022/07/21 06:54:42;;;;;;;14.50;13.27;;;23.00;99.90;;;;;;5050574;28;20519;-50
2022/07/21 06:57:09;;;;;;;13.60;12.50;;;23.00;99.90;;;;;;5050358;28;20429;-50
2022/07/21 06:59:36;;;;;;;15.00;13.60;;;22.90;99.90;;;;;;5050239;28;20477;-50
2022/07/21 07:02:03;;;;;;;15.33;13.93;;;22.90;99.90;;;;;;5050510;28;20499;-48
2022/07/21 07:04:32;;;;;;;16.13;14.53;;;23.00;99.90;;;;;;5050375;28;20495;-48
2022/07/21 07:06:59;;;;;;;15.23;13.73;;;22.90;99.90;;;;;;5050070;28;20450;-48
2022/07/21 07:09:26;;;;;;;15.07;13.73;;;23.00;99.90;;;;;;5049838;28;20531;-49
2022/07/21 07:11:54;;;;;;;16.20;14.43;;;23.20;99.90;;;;;;5050307;28;20473;-48
2022/07/21 07:14:21;;;;;;;15.40;14.00;;;23.30;99.90;;;;;;5050184;28;20500;-50
2022/07/21 07:16:48;;;;;;;15.67;13.90;;;23.30;99.90;;;;;;5050425;28;20548;-52
2022/07/21 07:19:15;;;;;;;15.40;13.90;;;23.50;99.90;;;;;;5049959;28;20485;-48
2022/07/21 07:21:44;;;;;;;15.20;13.70;;;23.50;99.90;;;;;;5049710;28;20437;-49
2022/07/21 07:24:11;;;;;;;16.53;14.97;;;23.60;99.90;;;;;;5050017;28;20518;-49
2022/07/21 07:26:38;;;;;;;14.40;13.20;;;23.60;99.90;;;;;;5049978;28;20495;-48
2022/07/21 07:29:05;;;;;;;15.83;14.40;;;23.70;99.90;;;;;;5049085;28;20477;-49
2022/07/21 07:31:32;;;;;;;16.90;15.23;;;23.80;99.90;;;;;;5049550;28;20469;-49
2022/07/21 07:33:59;;;;;;;16.43;15.03;;;23.90;99.90;;;;;;5050107;28;20457;-50
2022/07/21 07:36:27;;;;;;;15.40;14.07;;;24.00;99.90;;;;;;5049996;28;20479;-47
2022/07/21 07:38:56;;;;;;;15.20;13.80;;;24.00;99.90;;;;;;5049565;28;20865;-51
2022/07/21 07:41:25;;;;;;;16.13;14.83;;;24.10;99.90;;;;;;5049743;28;20438;-49
2022/07/21 07:43:53;;;;;;;16.13;14.70;;;24.20;99.90;;;;;;5049814;28;20477;-51
2022/07/21 07:46:20;;;;;;;17.57;15.93;;;24.10;99.90;;;;;;5049874;28;20523;-50
2022/07/21 07:48:47;;;;;;;17.20;15.60;;;24.10;99.90;;;;;;5049235;28;20454;-46
2022/07/21 07:51:14;;;;;;;17.00;15.30;;;24.20;99.90;;;;;;5049497;28;20579;-48
2022/07/21 07:53:42;;;;;;;17.17;15.67;;;24.20;99.90;;;;;;5049557;28;20425;-48
2022/07/21 07:56:10;;;;;;;16.27;14.87;;;24.20;99.90;;;;;;5049745;28;20448;-48
2022/07/21 07:58:38;;;;;;;17.67;16.10;;;24.40;99.90;;;;;;5049572;28;20460;-51
2022/07/21 08:01:05;;;;;;;16.53;15.10;;;24.80;99.90;;;;;;5049532;28;20490;-48
2022/07/21 08:03:32;;;;;;;16.30;14.60;;;25.20;99.90;;;;;;5049575;28;20436;-48
2022/07/21 08:06:03;;;;;;;17.07;15.47;;;25.50;99.90;;;;;;5049251;28;20781;-50
2022/07/21 08:08:30;;;;;;;18.10;16.30;;;25.90;99.90;;;;;;5049581;28;20472;-49
2022/07/21 08:10:57;;;;;;;17.60;15.90;;;26.10;99.90;;;;;;5049664;28;21088;-49
2022/07/21 08:13:26;;;;;;;52.27;46.57;;;26.10;99.90;;;;;;5049584;28;20495;-50
2022/07/21 08:15:54;;;;;;;23.57;19.70;;;26.20;99.90;;;;;;5049393;28;20430;-50
2022/07/21 08:18:21;;;;;;;18.10;16.23;;;26.30;99.90;;;;;;5049366;28;20465;-48
2022/07/21 08:20:48;;;;;;;17.00;15.67;;;26.60;99.90;;;;;;5048901;28;20437;-48
2022/07/21 08:23:16;;;;;;;19.17;17.40;;;26.90;99.90;;;;;;5049504;28;20491;-49
2022/07/21 08:25:44;;;;;;;21.03;16.93;;;27.00;99.90;;;;;;5049507;28;20449;-50
2022/07/21 08:28:11;;;;;;;17.20;15.80;;;26.90;99.90;;;;;;5049458;28;20477;-52
2022/07/21 08:30:40;;;;;;;18.10;16.60;;;27.00;99.90;;;;;;5048956;28;20500;-50
2022/07/21 08:33:07;;;;;;;18.67;17.13;;;27.00;99.90;;;;;;5049375;28;20507;-49
2022/07/21 08:35:34;;;;;;;16.43;14.93;;;27.10;99.90;;;;;;5049282;28;20446;-48
2022/07/21 08:38:04;;;;;;;15.60;14.13;;;27.00;99.90;;;;;;5049213;28;20461;-49
2022/07/21 08:40:35;;;;;;;15.70;14.07;;;27.00;99.90;;;;;;5049463;28;20441;-49
2022/07/21 08:43:02;;;;;;;15.10;13.70;;;26.60;99.90;;;;;;5053078;28;20445;-50
2022/07/21 08:45:30;;;;;;;14.10;12.70;;;26.20;99.90;;;;;;5053055;28;20999;-50
2022/07/21 08:48:00;;;;;;;13.83;12.53;;;25.90;99.90;;;;;;5052765;28;20887;-48
2022/07/21 08:50:29;;;;;;;14.00;12.70;;;25.40;99.90;;;;;;5052410;28;21058;-50
2022/07/21 08:52:56;;;;;;;14.40;13.00;;;25.30;99.90;;;;;;5052920;28;20453;-51
2022/07/21 08:55:24;;;;;;;16.30;14.80;;;25.00;99.90;;;;;;5052859;28;20502;-48
2022/07/21 08:57:51;;;;;;;15.30;13.90;;;25.00;99.90;;;;;;5052672;28;20465;-50
2022/07/21 09:00:18;;;;;;;15.17;13.67;;;25.20;99.90;;;;;;5052409;28;20441;-48
2022/07/21 09:02:45;;;;;;;12.60;11.40;;;24.90;99.90;;;;;;5052691;28;20445;-50
2022/07/21 09:05:14;;;;;;;14.67;13.27;;;24.80;99.90;;;;;;5052672;28;21168;-48
2022/07/21 09:07:54;;;;;;;13.80;12.60;;;24.90;99.90;;;;;;5052176;28;20481;-47
2022/07/21 09:10:24;;;;;;;13.43;12.27;;;25.00;99.90;;;;;;5051986;28;20827;-51
2022/07/21 09:12:53;;;;;;;13.80;12.60;;;24.90;99.90;;;;;;5052349;28;20437;-49
2022/07/21 09:15:22;;;;;;;14.30;13.00;;;25.10;99.90;;;;;;5052531;28;20453;-48
2022/07/21 09:18:09;;;;;;;12.70;11.53;;;25.40;99.90;;;;;;5052416;28;21316;-49
2022/07/21 09:20:40;;;;;;;12.33;11.23;;;25.50;99.90;;;;;;5052012;28;20477;-52
2022/07/21 09:23:09;;;;;;;13.33;12.00;;;25.50;99.90;;;;;;5052398;28;20476;-50
2022/07/21 09:25:39;;;;;;;14.80;11.90;;;25.50;99.90;;;;;;5052359;28;20954;-50
2022/07/21 09:28:15;;;;;;;11.57;10.47;;;25.70;99.90;;;;;;5053529;28;20883;-48
2022/07/21 09:30:57;;;;;;;11.47;10.37;;;25.70;99.90;;;;;;5048625;28;20630;-50
2022/07/21 09:33:31;;;;;;;12.27;11.10;;;26.00;99.90;;;;;;5051864;28;20433;-49
2022/07/21 09:36:05;;;;;;;13.93;12.47;;;26.30;99.90;;;;;;5049148;28;20442;-50
2022/07/21 09:38:35;;;;;;;13.10;11.90;;;26.40;99.90;;;;;;5051892;28;20452;-48
2022/07/21 09:41:11;;;;;;;12.50;11.40;;;26.20;99.90;;;;;;5051923;28;20434;-47
2022/07/21 09:43:45;;;;;;;12.00;10.90;;;26.20;99.90;;;;;;5051852;28;20445;-48
2022/07/21 09:46:16;;;;;;;12.77;11.50;;;26.30;99.90;;;;;;5051795;28;20432;-49
2022/07/21 09:48:45;;;;;;;13.00;11.70;;;26.40;99.90;;;;;;5051824;28;20531;-48
2022/07/21 09:51:40;;;;;;;12.70;11.60;;;26.50;99.90;;;;;;5051711;28;20475;-53
2022/07/21 09:54:09;;;;;;;13.13;11.83;;;26.40;99.90;;;;;;5028707;28;20446;-50
2022/07/21 09:56:38;;;;;;;12.43;11.43;;;26.30;99.90;;;;;;5051881;28;20491;-50
2022/07/21 09:59:06;;;;;;;12.20;11.07;;;26.20;99.90;;;;;;5051196;28;20880;-50
2022/07/21 10:01:35;;;;;;;12.93;11.43;;;26.30;99.90;;;;;;5051904;28;20441;-48
2022/07/21 10:04:02;;;;;;;12.87;11.70;;;26.20;99.90;;;;;;5051731;28;20463;-48
2022/07/21 10:06:32;;;;;;;12.93;11.63;;;26.20;99.90;;;;;;5051386;28;20433;-48
2022/07/21 10:09:01;;;;;;;12.63;11.47;;;26.10;99.90;;;;;;5050924;28;20449;-50
2022/07/21 10:11:29;;;;;;;11.13;10.03;;;26.00;99.90;;;;;;5051197;28;21071;-48
2022/07/21 10:13:56;;;;;;;12.93;11.10;;;26.20;99.90;;;;;;5051344;28;20445;-49
2022/07/21 10:16:24;;;;;;;13.30;12.07;;;26.40;99.90;;;;;;5051061;28;20430;-48
2022/07/21 10:19:12;;;;;;;13.27;12.07;;;26.20;99.90;;;;;;5050704;28;20876;-48
2022/07/21 10:21:46;;;;;;;11.83;10.80;;;26.20;99.90;;;;;;5051028;28;20996;-47
2022/07/21 10:24:15;;;;;;;11.93;10.93;;;26.30;99.90;;;;;;5051171;28;20850;-48
2022/07/21 10:27:00;;;;;;;12.13;10.90;;;26.60;99.90;;;;;;5051165;28;20488;-48
2022/07/21 10:29:58;;;;;;;19.03;13.30;;;26.60;99.90;;;;;;5050439;28;20578;-49
2022/07/21 10:32:28;;;;;;;12.30;11.20;;;26.40;99.90;;;;;;4995516;28;20499;-49
2022/07/21 10:34:55;;;;;;;11.73;10.53;;;26.30;99.70;;;;;;5047459;28;20808;-51
2022/07/21 10:37:45;;;;;;;13.10;11.23;;;26.50;99.90;;;;;;5051330;28;20472;-50
2022/07/21 10:40:40;;;;;;;11.27;10.27;;;26.70;99.90;;;;;;5050314;28;20448;-49
2022/07/21 10:43:39;;;;;;;12.93;10.87;;;26.80;99.70;;;;;;5049504;28;20438;-48
2022/07/21 10:46:35;;;;;;;11.10;10.10;;;26.80;99.90;;;;;;5049118;28;20461;-48
2022/07/21 10:49:05;;;;;;;11.50;10.40;;;26.90;99.60;;;;;;5048225;28;20957;-48
2022/07/21 10:51:34;;;;;;;11.50;10.40;;;27.00;99.90;;;;;;5050232;28;20835;-52
2022/07/21 10:54:26;;;;;;;12.60;11.10;;;26.90;98.70;;;;;;5050445;28;20425;-48
2022/07/21 10:57:29;;;;;;;12.57;11.17;;;27.00;99.90;;;;;;5050515;28;20441;-48
2022/07/21 11:00:23;;;;;;;10.90;10.00;;;27.00;99.30;;;;;;5050368;28;20631;-48
2022/07/21 11:02:53;;;;;;;16.73;11.50;;;26.90;99.10;;;;;;5050408;28;20437;-50
2022/07/21 11:05:21;;;;;;;13.03;11.67;;;27.00;99.80;;;;;;5050105;28;20908;-48
2022/07/21 11:08:23;;;;;;;26.57;13.00;;;26.80;98.40;;;;;;5050436;28;20472;-48
2022/07/21 11:10:52;;;;;;;10.97;10.03;;;26.80;99.90;;;;;;5045025;28;20988;-48
2022/07/21 11:13:25;;;;;;;11.97;10.90;;;26.80;98.90;;;;;;5050243;28;20477;-48
2022/07/21 11:15:58;;;;;;;11.50;10.40;;;26.80;99.30;;;;;;5050357;28;20995;-48
2022/07/21 11:18:28;;;;;;;11.63;10.53;;;26.80;99.80;;;;;;5050112;28;20469;-48
2022/07/21 11:21:08;;;;;;;16.60;11.43;;;26.80;99.40;;;;;;5049621;28;20503;-49
2022/07/21 11:23:36;;;;;;;13.80;10.17;;;26.80;98.40;;;;;;5050033;28;20479;-47
2022/07/21 11:26:04;;;;;;;11.97;10.77;;;26.80;98.80;;;;;;5049893;28;20474;-48
2022/07/21 11:28:32;;;;;;;11.83;10.10;;;26.80;98.30;;;;;;5049901;28;20564;-49
2022/07/21 11:31:20;;;;;;;11.60;10.50;;;26.90;99.30;;;;;;5049338;28;20500;-47
2022/07/21 11:33:48;;;;;;;10.53;9.63;;;27.00;97.90;;;;;;5050013;28;20529;-48
2022/07/21 11:36:27;;;;;;;10.70;9.80;;;26.90;99.80;;;;;;5049745;28;20436;-48
2022/07/21 11:38:59;;;;;;;11.23;10.17;;;26.80;98.30;;;;;;5049643;28;20475;-48
2022/07/21 11:41:26;;;;;;;26.90;11.40;;;27.00;98.00;;;;;;5049871;28;20449;-48
2022/07/21 11:43:54;;;;;;;12.27;11.10;;;26.80;98.10;;;;;;5049724;28;20491;-50
2022/07/21 11:46:21;;;;;;;14.70;10.97;;;26.80;98.70;;;;;;5049972;28;20450;-48
2022/07/21 11:48:48;;;;;;;11.23;10.30;;;26.60;98.70;;;;;;5049619;28;20519;-48
2022/07/21 11:51:15;;;;;;;12.93;10.70;;;26.60;98.30;;;;;;5049326;28;20464;-48
2022/07/21 11:53:45;;;;;;;12.43;11.20;;;26.50;99.20;;;;;;5049748;28;20469;-50
2022/07/21 11:56:16;;;;;;;12.60;11.33;;;26.50;99.60;;;;;;5049765;28;20444;-49
2022/07/21 11:58:43;;;;;;;11.50;10.30;;;26.60;99.40;;;;;;5049458;28;20465;-47
2022/07/21 12:01:11;;;;;;;11.20;10.10;;;26.60;99.30;;;;;;5049583;28;20445;-49
2022/07/21 12:03:48;;;;;;;12.40;11.30;;;26.70;99.00;;;;;;5049611;28;20473;-50
2022/07/21 12:06:15;;;;;;;14.60;11.87;;;26.80;98.40;;;;;;5049420;28;20520;-50
2022/07/21 12:08:44;;;;;;;12.10;10.80;;;26.70;98.40;;;;;;5049468;28;20511;-48
2022/07/21 12:11:12;;;;;;;12.20;11.00;;;26.60;99.50;;;;;;5049473;28;21010;-51
2022/07/21 12:14:00;;;;;;;13.33;10.93;;;26.50;99.20;;;;;;5049469;28;20492;-51
2022/07/21 12:16:29;;;;;;;15.47;10.27;;;26.60;98.50;;;;;;5051531;28;20516;-49
2022/07/21 12:19:15;;;;;;;43.47;14.60;;;26.50;99.60;;;;;;5053331;28;20551;-49
2022/07/21 12:21:50;;;;;;;11.97;10.87;;;26.50;99.10;;;;;;5053303;28;20445;-50
2022/07/21 12:24:18;;;;;;;13.23;12.00;;;26.30;99.90;;;;;;5053831;28;20548;-47
2022/07/21 12:26:46;;;;;;;13.27;11.90;;;26.40;99.70;;;;;;5053549;28;20476;-48
2022/07/21 12:29:26;;;;;;;12.53;11.47;;;26.40;99.90;;;;;;5052856;28;20481;-48
2022/07/21 12:31:55;;;;;;;12.73;11.63;;;26.30;99.90;;;;;;5053365;28;20473;-48
2022/07/21 12:34:24;;;;;;;13.07;11.83;;;26.20;99.90;;;;;;5053609;28;20507;-50
2022/07/21 12:36:51;;;;;;;12.90;11.70;;;26.20;99.90;;;;;;5053062;28;20438;-51
2022/07/21 12:42:06;;;;;;;27.00;13.60;;;25.80;99.90;;;;;;5053266;28;20555;-49
2022/07/21 12:44:34;;;;;;;15.73;11.70;;;25.70;99.90;;;;;;5053154;28;20900;-49